Time;durP1;ratioP1;P1;durP2;ratioP2;P2;SDS_P1;SDS_P2;PMS_P1;PMS_P2;Temp;Humidity;BMP_temperature;BMP_pressure;BME280_temperature;BME280_humidity;BME280_pressure;Samples;Min_cycle;Max_cycle;Signal;HPM_P1;HPM_P2
2024/04/03 00:00:37;;;;;;;3.97;1.60;;;;;;;-0.82;100.00;100419.47;5097355;28;20454;-67
2024/04/03 00:03:03;;;;;;;3.75;1.70;;;;;;;-0.69;100.00;100435.91;5116026;28;20040;-68
2024/04/03 00:05:29;;;;;;;2.35;1.60;;;;;;;-0.90;100.00;100406.91;5115740;28;20153;-67
2024/04/03 00:07:54;;;;;;;1.70;1.60;;;;;;;-0.70;100.00;100442.16;5063759;28;20043;-70
2024/04/03 00:10:20;;;;;;;3.13;1.80;;;;;;;-0.72;100.00;100449.38;5097424;28;20051;-67
2024/04/03 00:12:46;;;;;;;1.90;1.50;;;;;;;-0.81;100.00;100439.63;5097981;28;20061;-67
2024/04/03 00:15:11;;;;;;;2.15;1.60;;;;;;;-0.79;100.00;100440.34;5097490;28;20031;-68
2024/04/03 00:17:37;;;;;;;1.98;1.50;;;;;;;-0.71;100.00;100449.25;5097026;28;20024;-67
2024/04/03 00:20:02;;;;;;;3.47;1.70;;;;;;;-0.87;100.00;100416.38;5115591;28;20043;-69
2024/04/03 00:22:28;;;;;;;1.92;1.50;;;;;;;-1.07;100.00;100383.81;5115902;28;20084;-68
2024/04/03 00:24:53;;;;;;;2.47;1.60;;;;;;;-0.76;100.00;100446.19;5115290;28;20110;-68
2024/04/03 00:27:18;;;;;;;1.88;1.60;;;;;;;-0.76;100.00;100437.44;5103340;28;20036;-68
2024/04/03 00:29:47;;;;;;;1.50;1.40;;;;;;;-0.75;100.00;100437.28;5115652;28;20581;-68
2024/04/03 00:32:13;;;;;;;2.10;1.73;;;;;;;-0.74;100.00;100451.31;5119985;28;20092;-67
2024/04/03 00:34:39;;;;;;;2.05;1.75;;;;;;;-0.77;100.00;100455.06;5119164;28;20458;-69
2024/04/03 00:37:05;;;;;;;1.60;1.42;;;;;;;-0.78;100.00;100452.56;5117666;28;20039;-68
2024/04/03 00:39:31;;;;;;;2.20;1.77;;;;;;;-0.75;100.00;100455.78;5100797;28;20024;-71
2024/04/03 00:41:57;;;;;;;3.83;1.80;;;;;;;-0.76;100.00;100451.47;5119826;28;20103;-69
2024/04/03 00:44:22;;;;;;;2.15;1.77;;;;;;;-0.77;100.00;100451.59;5118829;28;20027;-68
2024/04/03 00:46:49;;;;;;;1.55;1.40;;;;;;;-0.75;100.00;100449.66;5120165;28;20051;-68
2024/04/03 00:49:14;;;;;;;2.10;1.50;;;;;;;-0.74;100.00;100459.25;5119640;28;20019;-68
2024/04/03 00:51:40;;;;;;;2.15;1.83;;;;;;;-0.73;100.00;100452.97;5120533;28;20481;-68
2024/04/03 00:54:07;;;;;;;3.22;1.85;;;;;;;-0.66;100.00;100451.50;5119601;28;20173;-69
2024/04/03 00:56:34;;;;;;;2.90;1.90;;;;;;;-0.63;100.00;100459.16;5119914;28;20056;-68
2024/04/03 00:58:59;;;;;;;2.80;1.80;;;;;;;-0.64;100.00;100459.28;5118304;28;20059;-68
2024/04/03 01:01:25;;;;;;;2.67;1.73;;;;;;;-0.69;100.00;100454.41;5119419;28;20093;-70
2024/04/03 01:03:50;;;;;;;3.47;1.83;;;;;;;-0.60;100.00;100450.94;5118617;28;20028;-69
2024/04/03 01:06:16;;;;;;;3.35;1.90;;;;;;;-0.58;100.00;100450.81;5118351;28;20114;-69
2024/04/03 01:08:41;;;;;;;2.75;1.80;;;;;;;-0.74;100.00;100430.19;5117484;28;20039;-67
2024/04/03 01:11:07;;;;;;;3.65;1.98;;;;;;;-0.60;100.00;100468.59;5117997;28;20028;-69
2024/04/03 01:13:32;;;;;;;2.70;1.90;;;;;;;-0.53;100.00;100464.44;5118241;28;20031;-68
2024/04/03 01:16:04;;;;;;;2.83;1.92;;;;;;;-0.54;100.00;100465.41;5118707;28;20039;-71
2024/04/03 01:18:30;;;;;;;1.58;1.48;;;;;;;-0.53;100.00;100464.44;5119101;28;20023;-70
2024/04/03 01:20:56;;;;;;;2.83;1.80;;;;;;;-0.63;100.00;100451.22;5118605;28;20027;-69
2024/04/03 01:23:24;;;;;;;2.10;1.83;;;;;;;-0.51;100.00;100454.56;5118922;28;20039;-74
2024/04/03 01:25:50;;;;;;;3.42;2.08;;;;;;;-0.75;100.00;100412.66;5100755;28;20028;-73
2024/04/03 01:28:20;;;;;;;6.00;2.22;;;;;;;-0.52;100.00;100459.03;5116917;28;20024;-68
2024/04/03 01:30:46;;;;;;;2.55;2.00;;;;;;;-0.53;100.00;100460.00;5117526;28;20019;-72
2024/04/03 01:33:11;;;;;;;2.50;1.98;;;;;;;-0.53;100.00;100465.28;5100673;28;20053;-67
2024/04/03 01:35:37;;;;;;;3.45;1.90;;;;;;;-0.56;100.00;100460.28;5118958;28;20039;-70
2024/04/03 01:38:02;;;;;;;2.08;1.67;;;;;;;-0.50;100.00;100464.16;5118879;28;20031;-68
2024/04/03 01:40:28;;;;;;;3.80;1.85;;;;;;;-0.54;100.00;100460.97;5118448;28;20047;-69
2024/04/03 01:42:53;;;;;;;1.65;1.55;;;;;;;-0.77;100.00;100435.72;5117873;28;20088;-68
2024/04/03 01:45:19;;;;;;;2.17;1.92;;;;;;;-0.60;100.00;100472.06;5117836;28;20015;-72
2024/04/03 01:47:45;;;;;;;2.60;2.00;;;;;;;-0.56;100.00;100478.78;5100041;28;20055;-70
2024/04/03 01:50:12;;;;;;;2.42;1.83;;;;;;;-0.60;100.00;100482.63;5115627;28;20059;-73
2024/04/03 01:52:38;;;;;;;3.03;2.10;;;;;;;-0.57;100.00;100474.44;5098875;28;20088;-69
2024/04/03 01:55:04;;;;;;;2.90;1.77;;;;;;;-0.54;100.00;100470.69;5120041;27;20051;-68
2024/04/03 01:57:29;;;;;;;3.25;2.40;;;;;;;-0.61;100.00;100475.69;5117686;28;20034;-67
2024/04/03 01:59:55;;;;;;;2.47;2.03;;;;;;;-0.65;100.00;100469.00;5116235;28;20036;-70
2024/04/03 02:02:20;;;;;;;2.55;2.22;;;;;;;-0.73;100.00;100455.63;5099615;28;20127;-74
2024/04/03 02:04:45;;;;;;;2.75;1.90;;;;;;;-0.59;100.00;100473.75;5099564;28;20023;-70
2024/04/03 02:07:11;;;;;;;3.65;2.17;;;;;;;-0.64;100.00;100480.41;5099666;28;20481;-69
2024/04/03 02:09:37;;;;;;;2.67;1.90;;;;;;;-0.70;100.00;100481.78;5118476;28;20051;-72
2024/04/03 02:12:03;;;;;;;3.67;2.10;;;;;;;-0.72;100.00;100478.44;5100913;28;20027;-68
2024/04/03 02:14:32;;;;;;;2.30;2.10;;;;;;;-0.71;100.00;100464.25;5099482;28;20149;-69
2024/04/03 02:16:58;;;;;;;2.30;1.73;;;;;;;-0.63;100.00;100472.38;5096207;28;20034;-72
2024/04/03 02:19:23;;;;;;;2.20;2.00;;;;;;;-0.57;100.00;100484.19;5117889;28;20031;-74
2024/04/03 02:21:49;;;;;;;2.08;1.80;;;;;;;-0.66;100.00;100477.91;5099738;28;20027;-69
2024/04/03 02:24:14;;;;;;;3.15;1.98;;;;;;;-0.64;100.00;100483.06;5098714;28;20053;-70
2024/04/03 02:26:40;;;;;;;2.70;2.22;;;;;;;-0.60;100.00;100487.91;5100103;28;20054;-70
2024/04/03 02:29:05;;;;;;;2.78;1.73;;;;;;;-0.64;100.00;100480.41;5111656;28;20100;-69
2024/04/03 02:31:31;;;;;;;2.42;1.80;;;;;;;-0.74;100.00;100480.38;5117762;28;20020;-70
2024/04/03 02:33:56;;;;;;;2.97;1.88;;;;;;;-0.62;100.00;100489.06;5118315;28;20440;-69
2024/04/03 02:36:22;;;;;;;2.33;2.08;;;;;;;-0.70;100.00;100492.34;5117514;28;20112;-72
2024/04/03 02:38:48;;;;;;;3.42;1.70;;;;;;;-0.93;100.00;100454.72;5116265;28;20481;-71
2024/04/03 02:41:17;;;;;;;3.08;1.80;;;;;;;-0.69;100.00;100503.78;5099082;28;20039;-69
2024/04/03 02:43:43;;;;;;;3.13;1.60;;;;;;;-0.78;100.00;100500.13;5115456;28;20028;-68
2024/04/03 02:46:08;;;;;;;2.53;2.00;;;;;;;-0.80;100.00;100504.69;5117078;28;20024;-69
2024/04/03 02:48:34;;;;;;;2.67;1.83;;;;;;;-0.94;100.00;100492.69;5117100;28;20504;-69
2024/04/03 02:51:07;;;;;;;2.65;1.75;;;;;;;-0.85;100.00;100509.53;5115615;28;20058;-69
2024/04/03 02:53:33;;;;;;;2.13;1.60;;;;;;;-0.89;100.00;100510.75;5115331;28;20052;-71
2024/04/03 02:56:06;;;;;;;1.83;1.60;;;;;;;-0.92;100.00;100525.09;5117451;28;20027;-70
2024/04/03 02:58:36;;;;;;;2.15;1.60;;;;;;;-0.92;100.00;100519.81;5117377;28;20043;-70
2024/04/03 03:01:02;;;;;;;2.25;1.60;;;;;;;-0.91;100.00;100532.03;5116994;28;20699;-69
2024/04/03 03:03:29;;;;;;;2.92;1.70;;;;;;;-0.96;100.00;100528.94;5118195;28;20035;-69
2024/04/03 03:05:56;;;;;;;2.20;1.85;;;;;;;-0.95;100.00;100520.91;5117551;28;20058;-69
2024/04/03 03:08:21;;;;;;;2.50;1.65;;;;;;;-0.95;100.00;100526.19;5116691;28;20468;-69
2024/04/03 03:10:47;;;;;;;3.08;1.40;;;;;;;-0.89;100.00;100527.47;5117981;28;20043;-71
2024/04/03 03:13:12;;;;;;;2.10;1.52;;;;;;;-0.98;100.00;100526.44;5118263;27;20027;-69
2024/04/03 03:15:38;;;;;;;3.53;1.70;;;;;;;-0.99;100.00;100534.50;5116594;28;20034;-69
2024/04/03 03:18:03;;;;;;;1.98;1.77;;;;;;;-1.00;100.00;100528.38;5117042;28;20030;-69
2024/04/03 03:20:29;;;;;;;2.28;1.80;;;;;;;-1.00;100.00;100533.66;5116718;28;20401;-69
2024/04/03 03:22:54;;;;;;;3.50;1.70;;;;;;;-1.01;100.00;100547.00;5117143;28;20024;-69
2024/04/03 03:25:20;;;;;;;2.20;1.85;;;;;;;-1.21;100.00;100511.72;5116666;28;20541;-70
2024/04/03 03:27:45;;;;;;;2.65;1.90;;;;;;;-1.33;100.00;100489.84;5116877;28;20031;-69
2024/04/03 03:30:11;;;;;;;2.03;1.75;;;;;;;-1.06;100.00;100538.63;5116518;28;20092;-71
2024/04/03 03:32:36;;;;;;;2.28;1.70;;;;;;;-1.14;100.00;100536.63;5118161;28;20110;-71
2024/04/03 03:35:01;;;;;;;2.47;1.70;;;;;;;-1.20;100.00;100518.66;5117172;28;20062;-68
2024/04/03 03:37:27;;;;;;;2.78;1.70;;;;;;;-1.21;100.00;100522.28;5098025;28;20587;-68
2024/04/03 03:39:52;;;;;;;3.67;2.03;;;;;;;-1.54;100.00;100471.38;5078496;28;20043;-68
2024/04/03 03:42:18;;;;;;;3.17;1.90;;;;;;;-1.06;100.00;100534.19;5077499;28;20113;-69
2024/04/03 03:44:44;;;;;;;3.13;1.42;;;;;;;-1.08;100.00;100530.84;5077843;28;20032;-70
2024/04/03 03:47:09;;;;;;;1.98;1.63;;;;;;;-1.10;100.00;100531.94;5095909;28;20122;-68
2024/04/03 03:52:36;;;;;;;2.20;1.95;;;;;;;-1.04;100.00;100531.41;5096123;28;20035;-69
2024/04/03 03:55:02;;;;;;;3.13;1.83;;;;;;;-1.20;100.00;100542.44;5096362;28;20075;-68
2024/04/03 03:57:31;;;;;;;2.20;1.70;;;;;;;-1.19;100.00;100533.56;5061284;28;20055;-68
2024/04/03 03:59:57;;;;;;;3.78;1.70;;;;;;;-1.23;100.00;100532.13;5060744;28;20032;-69
2024/04/03 04:02:23;;;;;;;2.17;1.48;;;;;;;-1.17;100.00;100541.34;5077907;28;20024;-72
2024/04/03 04:04:52;;;;;;;4.30;1.50;;;;;;;-1.14;100.00;100541.09;5095119;28;20024;-68
2024/04/03 04:07:22;;;;;;;2.08;1.80;;;;;;;-1.14;100.00;100549.00;5095967;28;20036;-68
2024/04/03 04:09:51;;;;;;;2.70;2.13;;;;;;;-1.27;100.00;100547.38;5095808;28;20057;-70
2024/04/03 04:12:20;;;;;;;4.18;1.80;;;;;;;-1.18;100.00;100551.06;5078800;28;20119;-68
2024/04/03 04:14:51;;;;;;;2.35;1.80;;;;;;;-1.18;100.00;100564.28;5095839;28;20054;-70
2024/04/03 04:17:17;;;;;;;3.03;1.95;;;;;;;-1.21;100.00;100556.59;5096919;28;20024;-68
2024/04/03 04:19:42;;;;;;;2.33;1.85;;;;;;;-1.27;100.00;100559.75;5097113;28;20441;-69
2024/04/03 04:22:08;;;;;;;4.18;1.90;;;;;;;-1.48;100.00;100512.25;5095669;28;20024;-69
2024/04/03 04:24:37;;;;;;;2.60;1.90;;;;;;;-1.18;100.00;100569.56;5076856;28;20031;-70
2024/04/03 04:27:05;;;;;;;1.90;1.70;;;;;;;-1.23;100.00;100569.09;5078127;28;20123;-68
2024/04/03 04:29:31;;;;;;;3.15;1.80;;;;;;;-1.24;100.00;100568.25;5090715;28;20020;-70
2024/04/03 04:32:01;;;;;;;2.75;1.92;;;;;;;-1.28;100.00;100566.84;5094076;28;20028;-76
2024/04/03 04:34:27;;;;;;;1.30;1.13;;;;;;;-1.26;100.00;100570.19;5082272;28;20126;-69
2024/04/03 04:36:52;;;;;;;2.15;1.63;;;;;;;-1.42;100.00;100578.56;5098667;28;20046;-71
2024/04/03 04:39:18;;;;;;;2.85;1.92;;;;;;;-1.46;100.00;100552.53;5097277;28;20023;-72
2024/04/03 04:41:51;;;;;;;3.35;1.88;;;;;;;-1.38;100.00;100580.94;5095264;28;20536;-76
2024/04/03 04:44:17;;;;;;;3.63;2.00;;;;;;;-1.42;100.00;100581.19;5120301;28;20087;-68
2024/04/03 04:46:42;;;;;;;2.33;1.80;;;;;;;-1.52;100.00;100574.19;5126476;28;20485;-75
2024/04/03 04:49:08;;;;;;;2.55;1.90;;;;;;;-1.63;100.00;100539.91;5095914;28;20049;-67
2024/04/03 04:51:33;;;;;;;3.72;1.90;;;;;;;-1.44;100.00;100583.13;5127409;28;20087;-71
2024/04/03 04:53:58;;;;;;;3.45;2.00;;;;;;;-1.45;100.00;100585.91;5102012;28;20047;-69
2024/04/03 04:56:24;;;;;;;2.78;2.13;;;;;;;-1.40;100.00;100581.06;5117739;28;20105;-67
2024/04/03 04:58:50;;;;;;;2.75;1.70;;;;;;;-1.31;100.00;100590.03;5115214;28;20026;-72
2024/04/03 05:01:16;;;;;;;2.35;1.92;;;;;;;-1.34;100.00;100591.09;5115307;28;20028;-68
2024/04/03 05:03:42;;;;;;;3.00;1.90;;;;;;;-1.42;100.00;100591.75;5097836;28;20111;-67
2024/04/03 05:06:14;;;;;;;3.10;1.83;;;;;;;-1.64;100.00;100540.88;5097443;28;20055;-68
2024/04/03 05:08:39;;;;;;;2.13;1.70;;;;;;;-1.55;100.00;100572.63;5115295;28;20032;-68
2024/04/03 05:11:05;;;;;;;2.80;2.00;;;;;;;-1.33;100.00;100594.56;5096634;28;20028;-69
2024/04/03 05:13:34;;;;;;;3.92;2.00;;;;;;;-1.34;100.00;100591.09;5095139;28;20409;-68
2024/04/03 05:16:11;;;;;;;2.47;2.00;;;;;;;-1.52;100.00;100575.00;5097681;28;20028;-68
2024/04/03 05:18:37;;;;;;;3.35;1.90;;;;;;;-1.29;100.00;100596.00;5101592;28;20051;-68
2024/04/03 05:21:03;;;;;;;2.08;1.85;;;;;;;-1.42;100.00;100573.28;5084400;28;20039;-67
2024/04/03 05:23:29;;;;;;;2.67;1.85;;;;;;;-1.29;100.00;100596.00;5119135;28;20023;-69
2024/04/03 05:25:58;;;;;;;2.65;2.00;;;;;;;-1.25;100.00;100603.53;5117022;28;20026;-68
2024/04/03 05:28:28;;;;;;;2.97;2.00;;;;;;;-1.25;100.00;100600.06;5118456;28;20084;-69
2024/04/03 05:30:54;;;;;;;2.83;1.75;;;;;;;-1.27;100.00;100602.00;5117223;28;20055;-67
2024/04/03 05:33:21;;;;;;;3.60;2.20;;;;;;;-1.27;100.00;100599.34;5118407;28;20027;-67
2024/04/03 05:36:00;;;;;;;3.35;2.08;;;;;;;-1.28;100.00;100602.97;5082963;28;20497;-67
2024/04/03 05:38:26;;;;;;;3.28;1.80;;;;;;;-1.28;100.00;100605.59;5117348;28;20058;-69
2024/04/03 05:40:52;;;;;;;2.03;1.83;;;;;;;-1.30;100.00;100592.53;5099017;28;20028;-68
2024/04/03 05:43:18;;;;;;;3.42;1.90;;;;;;;-1.22;100.00;100605.09;5082202;28;20024;-68
2024/04/03 05:45:45;;;;;;;2.55;1.85;;;;;;;-1.23;100.00;100595.47;5099896;28;20101;-67
2024/04/03 05:48:11;;;;;;;2.92;2.08;;;;;;;-1.24;100.00;100604.38;5099810;28;20035;-67
2024/04/03 05:50:36;;;;;;;2.97;1.88;;;;;;;-1.29;100.00;100611.84;5099917;28;20058;-68
2024/04/03 05:53:02;;;;;;;2.50;1.90;;;;;;;-1.20;100.00;100609.25;5100651;28;20132;-68
2024/04/03 05:55:28;;;;;;;2.75;1.90;;;;;;;-1.33;100.00;100603.31;5099944;28;20560;-67
2024/04/03 05:57:53;;;;;;;4.43;1.92;;;;;;;-1.36;100.00;100615.94;5118666;28;20028;-72
2024/04/03 06:00:19;;;;;;;2.10;1.70;;;;;;;-1.37;100.00;100601.09;5117587;28;20479;-68
2024/04/03 06:02:44;;;;;;;2.50;1.80;;;;;;;-1.36;100.00;100593.03;5100458;28;20119;-69
2024/04/03 06:05:10;;;;;;;2.35;1.67;;;;;;;-1.39;100.00;100600.34;5117234;28;20185;-70
2024/04/03 06:07:35;;;;;;;2.65;1.75;;;;;;;-1.32;100.00;100599.75;5099719;28;20090;-69
2024/04/03 06:10:03;;;;;;;2.72;1.50;;;;;;;-1.29;100.00;100599.50;5099397;28;20240;-68
2024/04/03 06:12:29;;;;;;;5.55;1.70;;;;;;;-1.29;100.00;100596.84;5082373;28;20041;-75
2024/04/03 06:14:54;;;;;;;3.38;1.77;;;;;;;-1.24;100.00;100604.38;5098315;28;20043;-69
2024/04/03 06:17:20;;;;;;;2.70;1.85;;;;;;;-1.05;100.00;100601.88;5116108;28;20019;-70
2024/04/03 06:19:45;;;;;;;2.40;1.70;;;;;;;-1.45;100.00;100555.06;5116501;28;20034;-71
2024/04/03 06:22:11;;;;;;;3.33;1.77;;;;;;;-0.96;100.00;100616.94;5116943;28;20055;-72
2024/04/03 06:24:37;;;;;;;2.00;1.52;;;;;;;-0.98;100.00;100620.69;5097963;28;20028;-68
2024/04/03 06:27:03;;;;;;;2.10;1.50;;;;;;;-0.94;100.00;100616.81;5098068;28;20623;-68
2024/04/03 06:29:28;;;;;;;2.42;1.50;;;;;;;-0.89;100.00;100613.75;5117339;28;20046;-68
2024/04/03 06:31:54;;;;;;;2.63;1.50;;;;;;;-0.91;100.00;100621.00;5117256;28;20031;-73
2024/04/03 06:34:19;;;;;;;2.00;1.67;;;;;;;-0.93;100.00;100617.66;5100641;28;20039;-74
2024/04/03 06:36:45;;;;;;;1.67;1.58;;;;;;;-0.75;100.00;100621.38;5115774;28;20405;-73
2024/04/03 06:39:10;;;;;;;1.98;1.52;;;;;;;-0.62;100.00;100622.00;5120893;28;20032;-69
2024/04/03 06:41:36;;;;;;;2.45;1.60;;;;;;;-0.57;100.00;100625.06;5102512;28;20115;-70
2024/04/03 06:44:01;;;;;;;3.08;1.83;;;;;;;-0.50;100.00;100628.88;5102546;28;20027;-70
2024/04/03 06:46:27;;;;;;;2.60;1.77;;;;;;;-0.37;100.00;100601.38;5102827;28;20036;-73
2024/04/03 06:48:53;;;;;;;3.10;1.80;;;;;;;-0.02;100.00;100630.03;5121247;28;20106;-69
2024/04/03 06:51:19;;;;;;;1.80;1.50;;;;;;;0.11;100.00;100638.56;5121571;28;20023;-70
2024/04/03 06:53:45;;;;;;;2.22;1.45;;;;;;;0.25;100.00;100632.03;5120656;28;20059;-71
2024/04/03 06:56:10;;;;;;;3.08;1.70;;;;;;;0.36;100.00;100625.78;5121338;28;20069;-69
2024/04/03 06:58:42;;;;;;;2.97;1.80;;;;;;;0.61;100.00;100621.78;5100981;28;20030;-68
2024/04/03 07:01:09;;;;;;;3.47;1.63;;;;;;;0.43;100.00;100566.88;5118846;28;20036;-69
2024/04/03 07:03:35;;;;;;;1.70;1.25;;;;;;;0.51;100.00;100607.69;5118512;28;20020;-72
2024/04/03 07:06:00;;;;;;;2.25;1.50;;;;;;;0.73;100.00;100612.72;5125867;28;20103;-72
2024/04/03 07:08:26;;;;;;;2.35;1.60;;;;;;;0.75;100.00;100605.44;5093276;28;20023;-75
2024/04/03 07:10:52;;;;;;;2.20;1.60;;;;;;;0.68;100.00;100638.78;5127310;28;20027;-69
2024/04/03 07:13:17;;;;;;;3.60;1.80;;;;;;;0.45;100.00;100644.31;5130524;28;20050;-70
2024/04/03 07:15:47;;;;;;;2.50;1.50;;;;;;;0.47;100.00;100644.19;5130045;28;20389;-69
2024/04/03 07:18:13;;;;;;;2.53;1.52;;;;;;;0.66;100.00;100643.34;5131581;28;20019;-69
2024/04/03 07:20:38;;;;;;;4.63;1.50;;;;;;;0.67;100.00;100642.41;5130266;28;20386;-70
2024/04/03 07:23:04;;;;;;;1.90;1.40;;;;;;;0.50;100.00;100643.94;5112823;28;20075;-74
2024/04/03 07:25:30;;;;;;;2.38;1.92;;;;;;;0.65;100.00;100657.59;5123685;28;20031;-68
2024/04/03 07:27:57;;;;;;;2.55;1.77;;;;;;;0.13;100.00;100633.97;5105600;28;20031;-68
2024/04/03 07:30:23;;;;;;;3.78;2.15;;;;;;;0.16;100.00;100662.78;5103355;28;20023;-68
2024/04/03 07:32:48;;;;;;;5.63;2.20;;;;;;;0.22;100.00;100658.78;5119874;28;20080;-69
2024/04/03 07:35:14;;;;;;;2.80;1.30;;;;;;;0.20;100.00;100671.31;5118504;28;20023;-71
2024/04/03 07:37:41;;;;;;;3.83;2.80;;;;;;;0.20;100.00;100643.03;5098814;28;20064;-76
2024/04/03 07:40:08;;;;;;;2.70;1.30;;;;;;;0.08;100.00;100640.66;5114508;28;20468;-73
2024/04/03 07:42:36;;;;;;;2.97;2.03;;;;;;;0.35;100.00;100656.72;5097509;28;20023;-71
2024/04/03 07:45:04;;;;;;;3.25;2.20;;;;;;;0.37;100.00;100668.00;5097911;28;20031;-70
2024/04/03 07:47:30;;;;;;;2.08;1.67;;;;;;;0.24;100.00;100638.31;5116160;28;20055;-67
2024/04/03 07:49:56;;;;;;;2.88;1.38;;;;;;;0.47;100.00;100662.72;5097350;28;20088;-67
2024/04/03 07:52:21;;;;;;;2.70;1.55;;;;;;;0.41;100.00;100658.81;5096180;28;20062;-70
2024/04/03 07:54:46;;;;;;;1.42;0.90;;;;;;;0.39;100.00;100652.81;5115256;28;20043;-72
2024/04/03 07:57:12;;;;;;;1.40;0.90;;;;;;;0.31;100.00;100657.97;5114907;28;20032;-70
2024/04/03 07:59:37;;;;;;;1.90;1.00;;;;;;;0.40;100.00;100646.56;5115548;28;20035;-69
2024/04/03 08:02:07;;;;;;;3.90;0.82;;;;;;;0.28;100.00;100641.53;5079614;28;20038;-69
2024/04/03 08:04:32;;;;;;;0.85;0.80;;;;;;;0.23;100.00;100652.50;5097196;28;20554;-70
2024/04/03 08:07:02;;;;;;;1.55;0.70;;;;;;;0.15;100.00;100653.19;5115012;28;20106;-70
2024/04/03 08:09:33;;;;;;;1.15;0.82;;;;;;;0.06;100.00;100659.28;5115110;28;20019;-69
2024/04/03 08:12:00;;;;;;;1.13;0.43;;;;;;;0.12;100.00;100660.56;5096567;28;20023;-70
2024/04/03 08:14:26;;;;;;;1.52;0.80;;;;;;;0.02;100.00;100647.31;5114589;28;20470;-68
2024/04/03 08:16:52;;;;;;;2.40;0.70;;;;;;;-0.11;100.00;100663.41;5115141;28;20111;-69
2024/04/03 08:19:18;;;;;;;1.13;0.70;;;;;;;-0.11;100.00;100658.13;5079418;28;20047;-71
2024/04/03 08:21:46;;;;;;;1.23;0.70;;;;;;;-0.01;100.00;100643.09;5114168;28;20032;-73
2024/04/03 08:24:12;;;;;;;1.83;0.60;;;;;;;0.00;100.00;100665.13;5096780;28;20502;-72
2024/04/03 08:26:37;;;;;;;3.35;0.70;;;;;;;-0.01;100.00;100677.50;5096153;28;20122;-70
2024/04/03 08:29:03;;;;;;;1.05;0.60;;;;;;;0.03;100.00;100679.88;5099104;28;20447;-74
2024/04/03 08:31:28;;;;;;;1.13;0.63;;;;;;;-0.06;100.00;100687.66;5119453;28;20029;-72
2024/04/03 08:33:53;;;;;;;1.67;0.60;;;;;;;0.02;100.00;100699.38;5118706;28;20031;-72
2024/04/03 08:36:19;;;;;;;1.13;0.73;;;;;;;0.06;100.00;100704.25;5100710;28;20036;-69
2024/04/03 08:38:44;;;;;;;0.90;0.60;;;;;;;0.09;100.00;100706.63;5083520;28;20028;-72
2024/04/03 08:41:10;;;;;;;0.50;0.50;;;;;;;-0.03;100.00;100689.22;5098352;28;20069;-69
2024/04/03 08:43:35;;;;;;;1.13;0.50;;;;;;;0.10;100.00;100718.06;5115321;28;20028;-68
2024/04/03 08:46:01;;;;;;;0.52;0.50;;;;;;;-0.01;100.00;100709.25;5099662;28;20394;-73
2024/04/03 08:48:27;;;;;;;1.50;0.60;;;;;;;-0.09;100.00;100709.06;5118051;28;20034;-74
2024/04/03 08:50:53;;;;;;;0.70;0.50;;;;;;;-0.08;100.00;100715.19;5119907;28;20020;-70
2024/04/03 08:53:20;;;;;;;0.82;0.52;;;;;;;0.06;100.00;100717.47;5103981;28;20042;-70
2024/04/03 08:55:47;;;;;;;0.73;0.50;;;;;;;-0.13;100.00;100722.69;5103658;28;20036;-69
2024/04/03 08:58:14;;;;;;;0.63;0.40;;;;;;;-0.12;100.00;100713.81;5104684;28;20043;-70
2024/04/03 09:00:40;;;;;;;1.73;0.60;;;;;;;-0.33;100.00;100693.53;5104507;28;20028;-69
2024/04/03 09:03:05;;;;;;;1.00;0.60;;;;;;;-0.24;100.00;100707.75;5123322;28;20031;-70
2024/04/03 09:05:31;;;;;;;0.70;0.40;;;;;;;-0.14;100.00;100708.63;5103904;28;20115;-69
2024/04/03 09:08:07;;;;;;;3.20;0.60;;;;;;;-0.50;100.00;100659.75;5105071;28;20051;-74
2024/04/03 09:10:38;;;;;;;1.60;0.43;;;;;;;-0.15;100.00;100701.66;5122678;28;20061;-70
2024/04/03 09:13:09;;;;;;;2.10;0.50;;;;;;;-0.27;100.00;100719.41;5122284;28;20085;-75
2024/04/03 09:15:35;;;;;;;1.13;0.60;;;;;;;-0.25;100.00;100722.78;5123148;28;20059;-70
2024/04/03 09:18:04;;;;;;;1.20;0.50;;;;;;;-0.25;100.00;100732.53;5103800;28;20039;-79
2024/04/03 09:20:30;;;;;;;1.00;0.50;;;;;;;-0.24;100.00;100727.09;5122206;28;20102;-69
2024/04/03 09:22:56;;;;;;;2.35;1.05;;;;;;;-0.03;100.00;100721.78;5103124;28;20493;-69
2024/04/03 09:25:29;;;;;;;0.98;0.47;;;;;;;-0.01;100.00;100700.47;5103302;28;20394;-72
2024/04/03 09:28:13;;;;;;;0.93;0.52;;;;;;;-0.05;100.00;100712.28;5102195;28;20049;-69
2024/04/03 09:30:49;;;;;;;1.30;0.47;;;;;;;-0.16;100.00;100707.94;5102792;28;20176;-76
2024/04/03 09:33:16;;;;;;;3.03;0.50;;;;;;;0.01;100.00;100718.88;5126633;28;20043;-74
2024/04/03 09:35:43;;;;;;;1.60;0.40;;;;;;;-0.05;100.00;100685.84;5130857;28;20032;-73
2024/04/03 09:38:10;;;;;;;0.73;0.30;;;;;;;0.26;100.00;100723.69;5112149;28;20027;-69
2024/04/03 09:40:37;;;;;;;0.50;0.30;;;;;;;-0.08;100.00;100712.56;5113706;28;20118;-69
2024/04/03 09:43:07;;;;;;;0.60;0.40;;;;;;;0.04;100.00;100713.31;5132264;28;20020;-70
2024/04/03 09:45:34;;;;;;;0.98;0.30;;;;;;;-0.13;100.00;100723.53;5114344;28;20041;-70
2024/04/03 09:48:07;;;;;;;1.35;0.50;;;;;;;-0.14;100.00;100719.19;5113089;28;20043;-70
2024/04/03 09:50:37;;;;;;;1.42;0.60;;;;;;;-0.06;100.00;100724.69;5093563;28;20051;-69
2024/04/03 09:53:06;;;;;;;0.70;0.40;;;;;;;0.11;100.00;100730.31;5126717;28;20042;-76
2024/04/03 09:55:32;;;;;;;1.10;0.40;;;;;;;0.18;100.00;100742.06;5121926;28;20027;-69
2024/04/03 09:58:13;;;;;;;1.27;0.40;;;;;;;0.06;100.00;100737.81;5121373;28;20023;-70
2024/04/03 10:00:39;;;;;;;0.38;0.20;;;;;;;-0.23;100.00;100709.44;5120290;28;20093;-76
2024/04/03 10:03:05;;;;;;;0.35;0.20;;;;;;;-0.25;100.00;100696.34;5099693;28;20073;-69
2024/04/03 10:05:35;;;;;;;1.20;0.50;;;;;;;0.11;100.00;100756.78;5100731;28;20062;-71
2024/04/03 10:08:10;;;;;;;1.92;0.40;;;;;;;0.25;100.00;100755.59;5120752;28;20020;-73
2024/04/03 10:10:35;;;;;;;0.75;0.40;;;;;;;0.37;100.00;100768.59;5102640;28;20019;-69
2024/04/03 10:13:01;;;;;;;0.57;0.35;;;;;;;0.38;100.00;100743.78;5085527;28;20041;-69
2024/04/03 10:15:27;;;;;;;1.27;0.50;;;;;;;0.62;100.00;100767.25;5101335;28;20458;-71
2024/04/03 10:18:00;;;;;;;1.75;0.40;;;;;;;0.36;100.00;100766.88;5120878;28;20044;-70
2024/04/03 10:20:34;;;;;;;0.85;0.40;;;;;;;0.54;100.00;100769.75;5120804;28;20016;-70
2024/04/03 10:23:03;;;;;;;0.57;0.38;;;;;;;0.56;100.00;100777.53;5102969;28;20023;-70
2024/04/03 10:25:30;;;;;;;0.88;0.35;;;;;;;0.43;100.00;100778.66;5102169;28;20482;-69
2024/04/03 10:27:57;;;;;;;0.80;0.52;;;;;;;0.41;100.00;100764.69;5102622;28;20116;-70
2024/04/03 10:30:23;;;;;;;0.70;0.30;;;;;;;0.69;100.00;100768.38;5121712;28;20393;-73
2024/04/03 10:32:53;;;;;;;0.75;0.40;;;;;;;0.58;100.00;100781.75;5120363;28;20028;-72
2024/04/03 10:35:19;;;;;;;1.42;0.50;;;;;;;0.66;100.00;100776.63;5120456;28;20438;-72
2024/04/03 10:37:45;;;;;;;0.50;0.35;;;;;;;0.54;100.00;100776.88;5119838;28;20059;-71
2024/04/03 10:40:12;;;;;;;1.55;0.50;;;;;;;0.60;100.00;100789.56;5118595;28;20035;-69
2024/04/03 10:42:38;;;;;;;0.55;0.30;;;;;;;0.61;100.00;100791.22;5118467;28;20038;-71
2024/04/03 10:45:03;;;;;;;1.08;0.68;;;;;;;0.59;100.00;100790.50;5084819;28;20035;-69
2024/04/03 10:47:29;;;;;;;1.55;0.38;;;;;;;0.54;100.00;100800.69;5119542;28;20032;-70
2024/04/03 10:49:54;;;;;;;0.85;0.60;;;;;;;0.50;100.00;100778.94;5083946;28;20055;-70
2024/04/03 10:52:20;;;;;;;0.70;0.50;;;;;;;0.73;100.00;100792.81;5118844;28;20123;-70
2024/04/03 10:54:46;;;;;;;0.80;0.50;;;;;;;0.89;100.00;100779.00;5100237;28;20067;-73
2024/04/03 10:57:12;;;;;;;1.38;0.50;;;;;;;0.86;100.00;100795.19;5118075;28;20122;-75
2024/04/03 10:59:37;;;;;;;0.65;0.40;;;;;;;0.78;100.00;100790.56;5119154;28;20019;-69
2024/04/03 11:02:09;;;;;;;1.13;0.50;;;;;;;0.76;100.00;100795.16;5113867;28;20039;-68
2024/04/03 11:04:35;;;;;;;0.45;0.32;;;;;;;0.77;100.00;100791.56;5084440;28;20051;-73
2024/04/03 11:07:00;;;;;;;0.82;0.82;;;;;;;0.98;100.00;100796.75;5102392;28;20405;-69
2024/04/03 11:09:26;;;;;;;1.10;0.57;;;;;;;0.83;100.00;100791.00;5100604;28;20032;-70
2024/04/03 11:11:52;;;;;;;0.73;0.40;;;;;;;0.85;100.00;100806.75;5119906;28;20019;-72
2024/04/03 11:14:23;;;;;;;0.68;0.52;;;;;;;0.70;100.00;100758.66;5101905;28;20062;-72
2024/04/03 11:16:48;;;;;;;0.95;0.32;;;;;;;1.07;100.00;100789.78;5083815;28;20398;-73
2024/04/03 11:19:14;;;;;;;0.85;0.40;;;;;;;0.88;100.00;100795.88;5084791;28;20048;-73